createdAt,value
2023-01-03T00:05:06.820Z,7.00
2023-01-03T00:11:17.790Z,6.90
2023-01-03T00:17:19.993Z,6.90
2023-01-03T00:23:21.844Z,6.80
2023-01-03T00:29:23.692Z,6.80
2023-01-03T00:35:25.456Z,6.60
2023-01-03T00:41:27.272Z,6.60
2023-01-03T00:47:29.029Z,6.60
2023-01-03T00:53:30.740Z,6.40
2023-01-03T00:59:32.516Z,6.40
2023-01-03T01:05:34.427Z,6.50
2023-01-03T01:11:36.222Z,6.40
2023-01-03T01:17:38.460Z,6.30
2023-01-03T01:23:41.477Z,6.20
2023-01-03T01:29:43.398Z,6.10
2023-01-03T01:35:45.268Z,6.00
2023-01-03T01:42:07.510Z,6.00
2023-01-03T01:48:13.293Z,6.00
2023-01-03T01:54:15.944Z,6.00
2023-01-03T02:00:18.176Z,5.90
2023-01-03T02:06:20.208Z,5.80
2023-01-03T02:12:49.331Z,5.70
2023-01-03T02:19:21.638Z,5.80
2023-01-03T02:25:35.765Z,5.80
2023-01-03T02:31:57.982Z,5.90
2023-01-03T02:38:35.826Z,6.10
2023-01-03T02:44:40.758Z,6.10
2023-01-03T02:50:52.154Z,6.10
2023-01-03T02:57:07.138Z,6.20
2023-01-03T03:03:14.342Z,6.20
2023-01-03T03:09:16.183Z,6.30
2023-01-03T03:15:23.003Z,6.30
2023-01-03T03:21:44.877Z,6.30
2023-01-03T03:28:07.380Z,6.30
2023-01-03T03:34:20.470Z,6.30
2023-01-03T03:40:43.982Z,6.30
2023-01-03T03:46:54.988Z,6.30
2023-01-03T03:53:05.072Z,6.30
2023-01-03T03:59:09.380Z,6.30
2023-01-03T04:05:13.215Z,6.30
2023-01-03T04:11:15.236Z,6.20
2023-01-03T04:17:17.229Z,6.30
2023-01-03T04:23:19.026Z,6.30
2023-01-03T04:29:20.737Z,6.30
2023-01-03T04:35:22.723Z,6.20
2023-01-03T04:41:24.521Z,6.10
2023-01-03T04:47:26.258Z,6.10
2023-01-03T04:53:28.110Z,6.00
2023-01-03T04:59:29.824Z,6.00
2023-01-03T05:05:31.588Z,5.90
2023-01-03T05:11:33.368Z,5.70
2023-01-03T05:17:35.118Z,5.60
2023-01-03T05:23:55.528Z,5.50
2023-01-03T05:29:57.701Z,5.50
2023-01-03T05:35:59.563Z,5.60
2023-01-03T05:42:01.364Z,5.60
2023-01-03T05:48:03.143Z,5.60
2023-01-03T05:54:05.140Z,5.70
2023-01-03T06:00:07.458Z,5.70
2023-01-03T06:06:11.946Z,5.60
2023-01-03T06:12:13.763Z,5.60
2023-01-03T06:18:15.491Z,5.60
2023-01-03T06:24:17.335Z,5.50
2023-01-03T06:30:19.237Z,5.40
2023-01-03T06:36:23.386Z,5.40
2023-01-03T06:42:40.281Z,5.30
2023-01-03T06:49:01.000Z,5.20
2023-01-03T06:55:03.226Z,5.20
2023-01-03T07:01:06.477Z,5.10
2023-01-03T07:07:08.327Z,5.00
2023-01-03T07:13:28.683Z,5.00
2023-01-03T07:19:30.436Z,4.90
2023-01-03T07:25:32.204Z,4.90
2023-01-03T07:31:34.283Z,4.90
2023-01-03T07:37:36.057Z,4.80
2023-01-03T07:43:40.248Z,4.90
2023-01-03T07:49:41.966Z,4.90
2023-01-03T07:55:45.465Z,4.90
2023-01-03T08:01:47.249Z,4.80
2023-01-03T08:07:50.607Z,4.80
2023-01-03T08:13:53.042Z,4.70
2023-01-03T08:19:54.793Z,4.70
2023-01-03T08:26:05.302Z,4.80
2023-01-03T08:32:07.284Z,4.70
2023-01-03T08:38:14.526Z,4.80
2023-01-03T08:44:16.438Z,4.80
2023-01-03T08:50:18.284Z,4.80
2023-01-03T08:56:21.170Z,4.90
2023-01-03T09:02:23.144Z,5.00
2023-01-03T09:08:25.023Z,5.10
2023-01-03T09:14:26.844Z,5.20
2023-01-03T09:20:28.568Z,5.30
2023-01-03T09:26:30.783Z,5.40
2023-01-03T09:32:32.533Z,5.50
2023-01-03T09:38:34.512Z,5.60
2023-01-03T09:44:37.680Z,5.70
2023-01-03T09:51:14.161Z,5.80
2023-01-03T09:57:28.156Z,5.90
2023-01-03T10:03:51.450Z,6.10
2023-01-03T10:09:59.921Z,6.10
2023-01-03T10:16:40.271Z,6.20
2023-01-03T10:22:42.229Z,6.40
2023-01-03T10:28:46.073Z,6.50
2023-01-03T10:35:04.585Z,6.50
2023-01-03T10:41:20.861Z,6.70
2023-01-03T10:47:25.554Z,6.90
2023-01-03T10:53:29.005Z,7.00
2023-01-03T10:59:32.294Z,7.20
2023-01-03T11:05:34.045Z,7.20
2023-01-03T11:11:40.083Z,7.50
2023-01-03T11:17:58.235Z,7.60
2023-01-03T11:24:13.114Z,7.70
2023-01-03T11:30:14.735Z,8.00
2023-01-03T11:36:24.654Z,8.20
2023-01-03T11:42:50.534Z,8.10
2023-01-03T11:49:24.507Z,8.10
2023-01-03T11:55:56.686Z,7.80
2023-01-03T12:02:55.720Z,7.70
2023-01-03T12:09:11.169Z,7.60
2023-01-03T12:15:21.710Z,7.70
2023-01-03T12:21:33.233Z,7.60
2023-01-03T12:27:41.823Z,7.50
2023-01-03T12:33:50.629Z,7.50
2023-01-03T12:39:56.919Z,7.60
2023-01-03T12:46:21.245Z,7.70
2023-01-03T12:52:26.098Z,7.70
2023-01-03T12:58:42.807Z,7.70
2023-01-03T13:04:46.816Z,7.80
2023-01-03T13:10:50.945Z,8.00
2023-01-03T13:16:54.607Z,8.10
2023-01-03T13:23:03.111Z,8.10
2023-01-03T13:29:43.622Z,8.10
2023-01-03T13:35:45.385Z,8.10
2023-01-03T13:41:53.740Z,8.10
2023-01-03T13:47:56.368Z,8.00
2023-01-03T13:54:18.633Z,8.10
2023-01-03T14:00:22.897Z,8.10
2023-01-03T14:07:05.985Z,8.10
2023-01-03T14:13:41.650Z,8.00
2023-01-03T14:19:51.514Z,8.10
2023-01-03T14:25:54.466Z,8.10
2023-01-03T14:31:57.040Z,8.20
2023-01-03T14:38:04.697Z,8.20
2023-01-03T14:44:11.203Z,8.20
2023-01-03T14:50:26.561Z,8.20
2023-01-03T14:56:29.242Z,8.20
2023-01-03T15:02:37.146Z,8.00
2023-01-03T15:08:43.360Z,7.90
2023-01-03T15:14:45.126Z,7.90
2023-01-03T15:20:50.096Z,7.90
2023-01-03T15:26:53.815Z,7.90
2023-01-03T15:33:18.430Z,7.90
2023-01-03T15:39:25.932Z,7.80
2023-01-03T15:45:30.257Z,7.80
2023-01-03T15:51:31.982Z,7.80
2023-01-03T15:57:34.200Z,7.80
2023-01-03T16:03:36.089Z,7.80
2023-01-03T16:09:38.257Z,7.70
2023-01-03T16:15:43.616Z,7.70
2023-01-03T16:22:08.996Z,7.70
2023-01-03T16:28:12.237Z,7.70
2023-01-03T16:34:20.664Z,7.80
2023-01-03T16:40:22.458Z,7.80
2023-01-03T16:46:26.236Z,7.70
2023-01-03T16:52:37.785Z,7.70
2023-01-03T16:58:39.624Z,7.70
2023-01-03T17:04:41.885Z,7.70
2023-01-03T17:10:46.817Z,7.50
2023-01-03T17:16:49.766Z,7.50
2023-01-03T17:23:00.312Z,7.50
2023-01-03T17:29:04.942Z,7.40
2023-01-03T17:35:11.798Z,7.30
2023-01-03T17:41:18.526Z,7.20
2023-01-03T17:47:41.059Z,7.10
2023-01-03T17:53:44.212Z,7.10
2023-01-03T17:59:46.184Z,7.10
2023-01-03T18:05:47.983Z,7.10
2023-01-03T18:11:49.739Z,7.20
2023-01-03T18:17:52.456Z,7.20
2023-01-03T18:23:58.709Z,7.20
2023-01-03T18:30:00.433Z,7.10
2023-01-03T18:36:02.248Z,7.20
2023-01-03T18:42:23.081Z,7.00
2023-01-03T18:48:25.048Z,6.90
2023-01-03T18:54:26.951Z,6.90
2023-01-03T19:00:28.704Z,6.70
2023-01-03T19:06:31.584Z,6.70
2023-01-03T19:12:38.492Z,6.70
2023-01-03T19:18:40.327Z,6.70
2023-01-03T19:24:42.193Z,6.60
2023-01-03T19:30:46.472Z,6.60
2023-01-03T19:36:49.640Z,6.60
2023-01-03T19:42:54.617Z,6.60
2023-01-03T19:48:56.368Z,6.60
2023-01-03T19:54:58.151Z,6.50
2023-01-03T20:01:00.147Z,6.50
2023-01-03T20:07:01.869Z,6.50
2023-01-03T20:13:05.309Z,6.60
2023-01-03T20:19:15.249Z,6.60
2023-01-03T20:25:32.313Z,6.50
2023-01-03T20:31:34.146Z,6.50
2023-01-03T20:37:35.966Z,6.50
2023-01-03T20:43:37.923Z,6.50
2023-01-03T20:49:42.468Z,6.50
2023-01-03T20:55:44.375Z,6.60
2023-01-03T21:01:48.394Z,6.70
2023-01-03T21:08:08.938Z,6.60
2023-01-03T21:14:10.686Z,6.60
2023-01-03T21:20:21.551Z,6.60
2023-01-03T21:26:23.268Z,6.60
2023-01-03T21:32:25.030Z,6.60
2023-01-03T21:38:26.815Z,6.50
2023-01-03T21:44:29.946Z,6.50
2023-01-03T21:50:32.718Z,6.50
2023-01-03T21:56:37.607Z,6.50
2023-01-03T22:03:00.407Z,6.50
2023-01-03T22:09:04.439Z,6.60
2023-01-03T22:15:06.816Z,6.70
2023-01-03T22:21:11.209Z,6.70
2023-01-03T22:27:12.936Z,6.60
2023-01-03T22:33:14.638Z,6.60
2023-01-03T22:39:16.372Z,6.60
2023-01-03T22:45:18.140Z,6.40
2023-01-03T22:51:21.775Z,6.50
2023-01-03T22:57:23.520Z,6.50
2023-01-03T23:03:25.248Z,6.50
2023-01-03T23:09:27.002Z,6.50
2023-01-03T23:15:30.957Z,6.50
2023-01-03T23:21:33.891Z,6.40
2023-01-03T23:27:35.742Z,6.50
2023-01-03T23:33:37.652Z,6.50
2023-01-03T23:39:39.934Z,6.40
2023-01-03T23:45:41.709Z,6.50
2023-01-03T23:51:43.544Z,6.50
2023-01-03T23:57:45.331Z,6.50
